Time;durP1;ratioP1;P1;durP2;ratioP2;P2;SDS_P1;SDS_P2;PMS_P1;PMS_P2;Temp;Humidity;BMP_temperature;BMP_pressure;BME280_temperature;BME280_humidity;BME280_pressure;Samples;Min_cycle;Max_cycle;Signal;HPM_P1;HPM_P2
2022/10/02 00:02:31;;;;;;;5.15;3.35;;;;;;;15.97;64.19;99517.66;5054893;28;20063;-64
2022/10/02 00:05:17;;;;;;;5.32;3.63;;;;;;;15.92;64.42;99519.72;5054832;28;20025;-63
2022/10/02 00:07:51;;;;;;;5.70;3.45;;;;;;;15.78;65.09;99524.94;5043541;28;20144;-63
2022/10/02 00:10:43;;;;;;;5.57;3.95;;;;;;;15.89;65.11;99530.47;5054901;28;20028;-63
2022/10/02 00:13:15;;;;;;;4.50;3.47;;;;;;;15.96;64.29;99526.53;5054634;28;20036;-63
2022/10/02 00:15:41;;;;;;;5.38;3.60;;;;;;;16.05;64.03;99529.59;5054035;28;20334;-64
2022/10/02 00:18:12;;;;;;;4.20;3.60;;;;;;;15.95;64.40;99530.09;5054174;28;20524;-63
2022/10/02 00:20:56;;;;;;;5.97;4.30;;;;;;;16.07;64.44;99535.66;5054654;28;20039;-63
2022/10/02 00:23:42;;;;;;;5.15;3.60;;;;;;;16.06;64.76;99528.66;5054369;28;20029;-63
2022/10/02 00:26:19;;;;;;;5.05;3.30;;;;;;;16.11;63.87;99523.94;5054479;28;20086;-63
2022/10/02 00:29:08;;;;;;;4.50;3.72;;;;;;;15.86;64.48;99520.06;5054586;28;20487;-63
2022/10/02 00:31:57;;;;;;;6.95;3.85;;;;;;;15.65;64.94;99522.13;5053963;28;20029;-62
2022/10/02 00:34:37;;;;;;;4.45;3.40;;;;;;;15.52;65.48;99527.22;5054241;28;20045;-61
2022/10/02 00:37:28;;;;;;;5.68;3.42;;;;;;;15.59;65.59;99525.06;5054426;28;20503;-63
2022/10/02 00:40:13;;;;;;;5.60;3.40;;;;;;;15.59;65.65;99522.41;5054203;28;20495;-63
2022/10/02 00:42:53;;;;;;;5.03;3.28;;;;;;;15.62;65.29;99526.69;5054377;28;20048;-63
2022/10/02 00:45:26;;;;;;;5.28;3.80;;;;;;;15.43;66.34;99525.06;5054300;28;20053;-63
2022/10/02 00:47:51;;;;;;;4.93;3.38;;;;;;;15.62;65.39;99537.28;5054555;28;20025;-63
2022/10/02 00:50:34;;;;;;;3.72;2.92;;;;;;;15.74;64.92;99540.13;5054095;28;20029;-63
2022/10/02 00:53:00;;;;;;;4.18;3.17;;;;;;;15.75;65.11;99543.63;5053897;28;20112;-64
2022/10/02 00:55:42;;;;;;;5.10;3.38;;;;;;;15.82;65.14;99545.00;5053644;28;20109;-63
2022/10/02 00:58:27;;;;;;;4.30;3.25;;;;;;;15.81;65.38;99543.31;5053977;28;20083;-64
2022/10/02 01:01:04;;;;;;;7.10;3.58;;;;;;;15.87;64.60;99550.88;5053672;28;20037;-64
2022/10/02 01:03:39;;;;;;;4.35;3.50;;;;;;;15.68;65.47;99548.44;5053828;28;20048;-64
2022/10/02 01:06:07;;;;;;;3.97;3.17;;;;;;;15.59;65.43;99553.34;5053924;28;20028;-64
2022/10/02 01:08:34;;;;;;;5.70;3.70;;;;;;;15.55;65.44;99549.16;5053693;28;20098;-62
2022/10/02 01:11:01;;;;;;;4.55;3.35;;;;;;;15.07;67.12;99550.88;5053465;28;20044;-64
2022/10/02 01:13:28;;;;;;;5.60;3.35;;;;;;;15.11;66.85;99555.06;5053626;28;20032;-64
2022/10/02 01:15:56;;;;;;;4.55;3.88;;;;;;;15.25;66.78;99560.50;5053675;28;20033;-64
2022/10/02 01:18:21;;;;;;;4.28;3.20;;;;;;;15.42;66.14;99555.13;5053515;28;20029;-63
2022/10/02 01:20:54;;;;;;;4.28;3.35;;;;;;;15.46;66.13;99564.59;5053986;28;20453;-64
2022/10/02 01:23:26;;;;;;;;;;;;;;;15.37;66.73;99564.28;5054446;28;20025;-64
2022/10/02 01:25:51;;;;;;;4.55;3.30;;;;;;;15.24;66.90;99561.41;5053806;28;19956;-64
2022/10/02 01:28:17;;;;;;;3.20;2.90;;;;;;;15.45;65.81;99557.63;5052610;28;20075;-64
2022/10/02 01:30:47;;;;;;;5.47;3.55;;;;;;;15.45;65.78;99556.75;5053135;28;20044;-63
2022/10/02 01:33:13;;;;;;;3.97;3.08;;;;;;;15.46;65.81;99563.75;5053140;28;20025;-62
2022/10/02 01:35:39;;;;;;;5.35;3.00;;;;;;;15.51;65.52;99559.91;5051747;28;20124;-64
2022/10/02 01:38:08;;;;;;;3.60;2.90;;;;;;;15.50;65.61;99552.91;5053341;28;20120;-63
2022/10/02 01:40:37;;;;;;;5.00;3.00;;;;;;;15.52;65.32;99558.13;5053326;28;20047;-63
2022/10/02 01:43:08;;;;;;;5.45;3.15;;;;;;;15.65;64.87;99563.63;5053213;28;20040;-61
2022/10/02 01:45:39;;;;;;;5.45;2.97;;;;;;;15.48;65.76;99568.03;5053498;28;20151;-63
2022/10/02 01:48:15;;;;;;;3.75;3.22;;;;;;;15.50;65.84;99575.88;5053285;28;20033;-63
2022/10/02 01:50:43;;;;;;;4.65;3.28;;;;;;;15.57;65.76;99571.13;5053308;28;20103;-63
2022/10/02 01:53:31;;;;;;;4.65;3.10;;;;;;;15.61;65.84;99567.38;5053132;28;20063;-63
2022/10/02 01:56:20;;;;;;;4.30;3.17;;;;;;;15.67;65.93;99567.03;5053212;28;20037;-63
2022/10/02 01:59:13;;;;;;;3.60;2.95;;;;;;;15.73;65.18;99570.22;5053179;28;20428;-63
2022/10/02 02:01:49;;;;;;;4.03;2.92;;;;;;;15.71;65.49;99576.53;5050824;28;20032;-63
2022/10/02 02:04:32;;;;;;;3.55;2.78;;;;;;;15.75;65.52;99575.41;5046198;28;20067;-63
2022/10/02 02:07:13;;;;;;;4.57;2.75;;;;;;;15.84;64.97;99580.22;5047376;28;20552;-62
2022/10/02 02:09:48;;;;;;;3.53;2.80;;;;;;;15.83;65.27;99581.13;5052420;28;20472;-63
2022/10/02 02:12:21;;;;;;;5.05;3.05;;;;;;;15.89;65.19;99588.75;5051794;28;20033;-63
2022/10/02 02:14:51;;;;;;;3.00;2.63;;;;;;;15.98;64.78;99582.94;5051936;28;20082;-64
2022/10/02 02:17:25;;;;;;;3.90;2.70;;;;;;;16.07;64.56;99581.53;5053316;28;20052;-62
2022/10/02 02:20:17;;;;;;;4.72;3.08;;;;;;;16.14;64.50;99584.72;5053010;28;20029;-62
2022/10/02 02:22:50;;;;;;;4.85;2.78;;;;;;;16.05;64.54;99582.59;5052725;28;20071;-61
2022/10/02 02:25:19;;;;;;;3.20;2.90;;;;;;;15.93;64.90;99582.34;5052160;28;20037;-62
2022/10/02 02:27:54;;;;;;;3.80;3.00;;;;;;;15.91;64.88;99580.72;5051573;28;20036;-63
2022/10/02 02:30:20;;;;;;;5.05;2.63;;;;;;;15.88;65.13;99576.47;5053007;28;20408;-62
2022/10/02 02:32:52;;;;;;;3.15;2.47;;;;;;;15.66;65.73;99591.81;5052495;28;20061;-63
2022/10/02 02:35:28;;;;;;;5.27;3.00;;;;;;;15.74;65.63;99584.31;5052339;28;20033;-62
2022/10/02 02:37:59;;;;;;;4.75;2.38;;;;;;;15.63;65.83;99578.72;5052831;28;20325;-63
2022/10/02 02:40:28;;;;;;;3.13;2.40;;;;;;;15.52;66.08;99585.47;5055517;28;20033;-63
2022/10/02 02:43:01;;;;;;;4.93;3.15;;;;;;;15.50;65.98;99582.03;5056350;28;20037;-63
2022/10/02 02:45:44;;;;;;;4.38;2.78;;;;;;;15.40;66.54;99586.13;5056404;28;20052;-63
2022/10/02 02:48:18;;;;;;;5.03;3.50;;;;;;;15.18;67.31;99591.69;5056572;28;20067;-63
2022/10/02 02:50:48;;;;;;;4.40;2.92;;;;;;;15.25;66.72;99589.59;5056058;28;20481;-63
2022/10/02 02:53:25;;;;;;;8.50;3.38;;;;;;;14.98;68.34;99591.91;5056210;28;20033;-64
2022/10/02 02:55:55;;;;;;;5.35;3.22;;;;;;;15.02;67.52;99589.00;5056331;28;20052;-64
2022/10/02 02:58:56;;;;;;;4.18;2.83;;;;;;;15.02;67.77;99594.31;5056075;28;20040;-64
2022/10/02 03:01:21;;;;;;;5.32;3.50;;;;;;;14.94;67.93;99599.13;5045574;28;20052;-64
2022/10/02 03:03:47;;;;;;;7.40;3.45;;;;;;;14.93;68.27;99601.88;5056131;28;20039;-63
2022/10/02 03:06:15;;;;;;;6.15;3.67;;;;;;;14.96;68.27;99610.50;5055851;28;20041;-63
2022/10/02 03:08:42;;;;;;;4.78;3.05;;;;;;;15.13;67.59;99606.97;5055792;28;20086;-63
2022/10/02 03:11:20;;;;;;;3.88;2.70;;;;;;;15.19;67.99;99608.44;5055747;28;20059;-63
2022/10/02 03:14:03;;;;;;;3.85;2.85;;;;;;;15.36;67.06;99611.06;5055791;28;20025;-63
2022/10/02 03:17:10;;;;;;;5.50;2.47;;;;;;;15.47;66.89;99619.25;5055775;28;20032;-62
2022/10/02 03:19:49;;;;;;;3.83;2.25;;;;;;;15.52;66.54;99621.69;5054427;28;20521;-62
2022/10/02 03:22:46;;;;;;;6.10;2.75;;;;;;;15.50;66.73;99619.09;5055969;28;20021;-64
2022/10/02 03:25:30;;;;;;;3.75;2.38;;;;;;;15.71;65.99;99621.53;5055630;28;20063;-64
2022/10/02 03:28:07;;;;;;;3.00;2.42;;;;;;;15.85;65.62;99619.00;5055939;28;20035;-63
2022/10/02 03:30:35;;;;;;;4.75;2.40;;;;;;;15.91;65.16;99618.66;5055776;28;20035;-64
2022/10/02 03:33:03;;;;;;;3.67;2.30;;;;;;;15.93;65.12;99622.09;5055158;28;20029;-64
2022/10/02 03:35:30;;;;;;;5.88;2.47;;;;;;;15.91;65.30;99623.94;5055443;28;20036;-64
2022/10/02 03:38:02;;;;;;;4.28;2.20;;;;;;;15.85;65.51;99613.72;5055333;28;20083;-63
2022/10/02 03:40:27;;;;;;;4.68;2.47;;;;;;;15.88;65.43;99617.97;5055732;28;20055;-63
2022/10/02 03:42:57;;;;;;;3.47;2.13;;;;;;;15.93;65.17;99615.94;5053811;28;20472;-63
2022/10/02 03:45:23;;;;;;;3.00;2.03;;;;;;;15.68;66.04;99619.09;5054953;28;20057;-63
2022/10/02 03:47:48;;;;;;;2.60;1.75;;;;;;;15.62;66.22;99622.88;5054006;28;20037;-64
2022/10/02 03:50:14;;;;;;;6.45;1.90;;;;;;;15.59;66.31;99628.31;5054949;28;20033;-64
2022/10/02 03:52:41;;;;;;;3.80;1.83;;;;;;;15.59;66.37;99624.84;5054663;28;20040;-63
2022/10/02 03:55:22;;;;;;;6.85;1.90;;;;;;;15.48;66.95;99621.00;5055153;28;20060;-64
2022/10/02 03:57:47;;;;;;;3.90;1.92;;;;;;;15.60;66.68;99634.47;5054959;28;20028;-63
2022/10/02 04:00:28;;;;;;;4.38;1.77;;;;;;;15.61;66.90;99631.75;5055106;28;20397;-63
2022/10/02 04:03:00;;;;;;;4.10;1.67;;;;;;;15.68;66.44;99627.03;5053389;28;20120;-64
2022/10/02 04:05:32;;;;;;;;;;;;;;;15.43;67.68;99627.44;5053603;28;20400;-64
2022/10/02 04:08:16;;;;;;;3.75;1.38;;;;;;;15.52;66.79;99626.97;5054889;28;19944;-63
2022/10/02 04:11:00;;;;;;;3.95;1.75;;;;;;;15.36;67.53;99631.34;5054535;28;20108;-62
2022/10/02 04:13:33;;;;;;;3.42;1.20;;;;;;;15.50;67.14;99637.63;5054650;28;20028;-63
2022/10/02 04:16:26;;;;;;;2.60;1.33;;;;;;;15.64;67.08;99638.66;5053608;28;20032;-64
2022/10/02 04:18:51;;;;;;;4.68;1.40;;;;;;;15.57;66.99;99645.25;5054765;28;20032;-64
2022/10/02 04:21:33;;;;;;;3.50;1.30;;;;;;;15.67;66.62;99633.25;5053148;28;20495;-64
2022/10/02 04:24:14;;;;;;;4.60;1.38;;;;;;;15.83;66.07;99641.22;5054002;28;20021;-64
2022/10/02 04:26:53;;;;;;;4.53;1.40;;;;;;;15.85;66.01;99648.16;5051519;28;20047;-64
2022/10/02 04:29:26;;;;;;;3.65;1.02;;;;;;;15.90;65.75;99656.69;5051130;28;20025;-62
2022/10/02 04:31:59;;;;;;;3.47;1.45;;;;;;;15.83;66.09;99657.94;5052122;28;20481;-63
2022/10/02 04:34:26;;;;;;;5.05;1.10;;;;;;;15.63;66.73;99656.34;5041832;28;20168;-62
2022/10/02 04:37:44;;;;;;;3.30;1.13;;;;;;;15.75;66.51;99654.88;5049001;28;20036;-63
2022/10/02 04:40:16;;;;;;;4.53;1.08;;;;;;;15.87;65.88;99664.78;5039401;28;20052;-63
2022/10/02 04:42:44;;;;;;;4.30;1.10;;;;;;;15.90;65.79;99663.78;5048194;28;20438;-62
2022/10/02 04:45:30;;;;;;;2.92;1.10;;;;;;;15.92;65.95;99668.06;5040568;28;20512;-64
2022/10/02 04:48:23;;;;;;;2.70;1.13;;;;;;;15.82;66.28;99666.84;5048880;28;20037;-63
2022/10/02 04:51:08;;;;;;;4.75;1.23;;;;;;;15.94;65.73;99665.31;5053508;28;20056;-63
2022/10/02 04:53:54;;;;;;;4.40;1.23;;;;;;;15.92;65.64;99673.38;5040293;28;20047;-62
2022/10/02 04:56:28;;;;;;;14.80;9.50;;;;;;;15.91;65.75;99671.63;5053066;28;20536;-62
2022/10/02 04:59:12;;;;;;;8.45;3.60;;;;;;;15.86;65.73;99671.03;5052163;28;20499;-63
2022/10/02 05:02:14;;;;;;;5.35;3.05;;;;;;;15.67;66.39;99663.22;5053428;28;20140;-63
2022/10/02 05:05:07;;;;;;;4.03;1.70;;;;;;;15.81;65.85;99667.78;5050612;28;20075;-62
2022/10/02 05:07:48;;;;;;;5.32;2.10;;;;;;;15.76;65.64;99672.50;5049940;28;20024;-63
2022/10/02 05:10:44;;;;;;;5.93;1.52;;;;;;;15.59;66.57;99676.00;5047136;28;20477;-63
2022/10/02 05:13:22;;;;;;;4.82;2.03;;;;;;;15.72;65.99;99673.59;5051290;28;20047;-63
2022/10/02 05:16:00;;;;;;;10.13;5.75;;;;;;;15.75;65.68;99676.91;5052015;28;20163;-62
2022/10/02 05:18:36;;;;;;;19.27;13.88;;;;;;;15.74;65.58;99677.84;5050383;28;20068;-64
2022/10/02 05:21:30;;;;;;;11.45;8.15;;;;;;;15.69;65.87;99681.69;5049026;28;20463;-62
2022/10/02 05:23:58;;;;;;;;;;;;;;;15.36;66.68;99679.88;5051683;28;20043;-64
2022/10/02 05:26:53;;;;;;;8.80;4.00;;;;;;;15.33;66.61;99682.69;5046733;28;20140;-63
2022/10/02 05:29:30;;;;;;;7.50;2.85;;;;;;;15.30;66.77;99689.91;5041087;28;20123;-63
2022/10/02 05:32:22;;;;;;;5.88;1.80;;;;;;;15.01;67.72;99685.19;5052001;28;20411;-62
2022/10/02 05:34:54;;;;;;;7.35;2.28;;;;;;;15.14;67.16;99693.34;5051318;28;20051;-62
2022/10/02 05:37:46;;;;;;;6.22;2.05;;;;;;;15.11;67.33;99692.66;5052571;28;20441;-63
2022/10/02 05:40:30;;;;;;;6.78;1.90;;;;;;;15.10;67.09;99701.53;5049195;28;20055;-62
2022/10/02 05:43:11;;;;;;;5.75;2.33;;;;;;;15.16;66.84;99693.25;5048399;28;20480;-63
2022/10/02 05:45:49;;;;;;;7.55;2.22;;;;;;;15.15;67.13;99696.84;5051861;28;20108;-64
2022/10/02 05:48:26;;;;;;;7.20;1.92;;;;;;;15.25;66.88;99698.09;5047405;28;20033;-64
2022/10/02 05:51:13;;;;;;;7.95;1.98;;;;;;;15.15;67.01;99691.56;5051429;28;20060;-62
2022/10/02 05:54:02;;;;;;;2.72;1.55;;;;;;;15.23;66.89;99692.88;5020016;28;20053;-63
2022/10/02 05:56:40;;;;;;;5.25;1.10;;;;;;;15.08;67.23;99701.63;5044345;28;20039;-64
2022/10/02 05:59:17;;;;;;;4.95;1.65;;;;;;;15.03;67.42;99693.88;5051138;28;20028;-64
2022/10/02 06:01:46;;;;;;;7.05;2.17;;;;;;;15.05;67.06;99701.75;5052132;28;20040;-63
2022/10/02 06:04:33;;;;;;;6.47;1.55;;;;;;;15.25;66.32;99703.41;5050408;28;20443;-63
2022/10/02 06:07:08;;;;;;;8.52;2.33;;;;;;;15.20;66.58;99702.75;5048846;28;20036;-63
2022/10/02 06:09:46;;;;;;;5.72;2.28;;;;;;;15.16;66.45;99710.03;5035959;28;20496;-63
2022/10/02 06:12:30;;;;;;;6.22;1.42;;;;;;;15.26;66.28;99700.66;5051605;28;20079;-64
2022/10/02 06:15:05;;;;;;;7.10;1.50;;;;;;;15.21;66.62;99717.72;5053954;28;20029;-63
2022/10/02 06:17:40;;;;;;;5.15;1.13;;;;;;;15.27;66.18;99712.94;5055962;28;20047;-63
2022/10/02 06:20:19;;;;;;;10.18;1.75;;;;;;;15.22;66.35;99714.97;5049339;28;20541;-62
2022/10/02 06:23:00;;;;;;;3.33;0.93;;;;;;;15.43;65.90;99720.09;5055338;28;20068;-64
2022/10/02 06:25:32;;;;;;;5.82;1.20;;;;;;;15.60;65.07;99713.91;5055870;28;20500;-63
2022/10/02 06:28:20;;;;;;;7.43;1.23;;;;;;;15.93;64.82;99720.09;5049697;28;20472;-63
2022/10/02 06:30:53;;;;;;;7.82;1.42;;;;;;;15.94;64.04;99719.16;5055632;28;20254;-64
2022/10/02 06:33:22;;;;;;;6.85;1.30;;;;;;;15.81;64.44;99726.06;5055911;28;20067;-63
2022/10/02 06:36:03;;;;;;;7.07;1.33;;;;;;;15.96;64.05;99722.59;5052989;28;20397;-64
2022/10/02 06:38:44;;;;;;;11.32;2.85;;;;;;;16.11;63.42;99720.88;5054165;28;20064;-64
2022/10/02 06:41:34;;;;;;;6.50;1.48;;;;;;;16.27;62.83;99715.59;5054997;28;20040;-63
2022/10/02 06:44:34;;;;;;;7.25;1.45;;;;;;;16.43;62.68;99720.88;5055233;28;20052;-62
2022/10/02 06:47:11;;;;;;;4.43;1.75;;;;;;;16.96;61.44;99725.81;5051517;28;20139;-64
2022/10/02 06:49:42;;;;;;;7.97;1.75;;;;;;;16.97;61.45;99718.72;5054018;28;20044;-63
2022/10/02 06:52:29;;;;;;;5.35;1.65;;;;;;;17.27;60.74;99718.69;5055081;28;20498;-63
2022/10/02 06:55:16;;;;;;;6.78;1.65;;;;;;;17.08;61.09;99718.94;5055208;28;20115;-63
2022/10/02 06:58:11;;;;;;;8.93;1.55;;;;;;;17.14;61.27;99728.34;5053514;28;21867;-63
2022/10/02 07:00:52;;;;;;;6.10;1.80;;;;;;;16.92;61.08;99726.94;5048623;28;20029;-63
2022/10/02 07:03:41;;;;;;;7.82;1.58;;;;;;;16.96;61.45;99731.13;5050884;28;20033;-63
2022/10/02 07:06:20;;;;;;;5.40;2.33;;;;;;;16.70;62.53;99726.44;5049364;28;20091;-64
2022/10/02 07:09:10;;;;;;;10.13;1.50;;;;;;;16.30;63.22;99726.03;5056972;28;20119;-63
2022/10/02 07:11:57;;;;;;;6.20;1.50;;;;;;;16.45;62.68;99726.97;5054666;28;20040;-63
2022/10/02 07:14:50;;;;;;;8.80;1.95;;;;;;;16.93;61.33;99727.81;5054295;28;20070;-60
2022/10/02 07:17:52;;;;;;;10.50;2.55;;;;;;;17.10;60.83;99742.72;5053024;28;20476;-63
2022/10/02 07:20:24;;;;;;;5.32;1.35;;;;;;;17.52;59.82;99728.72;5050857;28;20024;-64
2022/10/02 07:23:15;;;;;;;7.88;1.70;;;;;;;17.12;59.85;99728.44;5046664;28;20503;-64
2022/10/02 07:25:57;;;;;;;11.10;3.28;;;;;;;17.09;60.67;99736.56;5059542;28;20119;-62
2022/10/02 07:28:38;;;;;;;6.20;1.75;;;;;;;16.93;60.83;99728.66;5047028;28;20090;-63
2022/10/02 07:31:17;;;;;;;8.63;2.03;;;;;;;16.94;61.11;99740.97;5059811;28;20051;-63
2022/10/02 07:33:55;;;;;;;6.85;1.23;;;;;;;17.49;59.88;99739.50;5053847;28;20029;-63
2022/10/02 07:36:47;;;;;;;6.32;1.48;;;;;;;17.49;59.79;99740.38;5053165;28;20037;-64
2022/10/02 07:39:51;;;;;;;7.82;1.70;;;;;;;17.51;59.22;99742.06;5058860;28;20147;-63
2022/10/02 07:42:47;;;;;;;7.05;1.30;;;;;;;17.67;59.28;99742.84;5049211;28;20132;-63
2022/10/02 07:45:32;;;;;;;3.50;1.00;;;;;;;17.64;58.46;99753.69;5046004;28;20037;-63
2022/10/02 07:48:15;;;;;;;5.65;1.38;;;;;;;17.97;58.58;99750.78;5039279;28;20512;-62
2022/10/02 07:51:00;;;;;;;3.73;1.20;;;;;;;18.19;57.66;99743.19;5049251;28;20033;-63
2022/10/02 07:53:37;;;;;;;6.28;1.20;;;;;;;17.54;58.89;99749.84;5045525;28;20041;-64
2022/10/02 07:56:05;;;;;;;6.93;1.40;;;;;;;17.54;58.59;99753.38;5034409;28;20048;-63
2022/10/02 07:58:39;;;;;;;5.18;1.40;;;;;;;18.21;57.38;99748.38;5040025;28;20041;-62
2022/10/02 08:01:19;;;;;;;6.15;1.40;;;;;;;18.26;57.43;99750.75;5049487;28;20059;-63
2022/10/02 08:03:59;;;;;;;6.28;2.08;;;;;;;17.77;57.65;99759.97;5073458;28;20126;-64
2022/10/02 08:06:24;;;;;;;6.50;1.35;;;;;;;17.83;58.05;99761.38;5073729;28;20506;-63
2022/10/02 08:08:56;;;;;;;7.53;1.90;;;;;;;18.18;57.13;99757.41;5074066;28;20052;-64
2022/10/02 08:11:30;;;;;;;6.45;1.52;;;;;;;18.41;56.35;99761.28;5074230;28;20031;-63
2022/10/02 08:14:07;;;;;;;8.70;1.73;;;;;;;17.84;56.91;99777.25;5073908;28;20414;-65
2022/10/02 08:16:40;;;;;;;7.88;1.25;;;;;;;18.16;56.35;99769.94;5073484;28;20033;-63
2022/10/02 08:19:15;;;;;;;6.60;1.30;;;;;;;18.33;56.54;99766.22;5074690;28;20028;-63
2022/10/02 08:21:56;;;;;;;5.72;1.20;;;;;;;18.16;55.59;99769.09;5074526;28;20471;-63
2022/10/02 08:24:38;;;;;;;5.50;1.55;;;;;;;18.04;55.65;99784.00;5073729;28;20085;-65
2022/10/02 08:27:11;;;;;;;6.37;1.43;;;;;;;17.89;55.90;99784.94;5073658;28;20032;-64
2022/10/02 08:29:50;;;;;;;5.97;1.50;;;;;;;18.15;56.06;99770.91;5073148;28;20028;-64
2022/10/02 08:32:16;;;;;;;5.35;1.40;;;;;;;18.36;55.87;99768.69;5070389;28;20024;-64
2022/10/02 08:34:42;;;;;;;5.45;1.67;;;;;;;18.63;55.25;99775.84;5054675;28;20436;-64
2022/10/02 08:37:39;;;;;;;6.00;1.63;;;;;;;18.81;53.84;99774.69;5053865;28;20036;-64
2022/10/02 08:40:08;;;;;;;7.18;1.52;;;;;;;18.33;55.19;99779.53;5054106;28;20024;-64
2022/10/02 08:42:44;;;;;;;6.28;1.60;;;;;;;18.33;54.86;99779.53;5054526;28;20048;-63
2022/10/02 08:45:28;;;;;;;5.10;1.63;;;;;;;18.73;54.05;99781.47;5054208;28;20053;-62
2022/10/02 08:48:37;;;;;;;5.25;1.50;;;;;;;19.34;52.75;99775.59;5054291;28;20079;-64
2022/10/02 08:51:50;;;;;;;3.53;1.30;;;;;;;19.60;52.61;99773.00;5054143;28;20029;-63
2022/10/02 08:55:01;;;;;;;4.45;1.50;;;;;;;18.89;52.75;99776.84;4999847;28;20074;-65
2022/10/02 08:57:40;;;;;;;4.40;1.40;;;;;;;19.07;52.27;99766.78;5053330;28;20033;-65
2022/10/02 09:00:13;;;;;;;8.32;1.85;;;;;;;19.06;52.96;99787.25;5053121;28;20025;-63
2022/10/02 09:03:01;;;;;;;3.85;1.60;;;;;;;19.08;52.38;99776.50;5053240;28;20040;-63
2022/10/02 09:05:58;;;;;;;7.00;1.50;;;;;;;19.43;52.33;99776.81;5054093;28;20032;-65
2022/10/02 09:08:56;;;;;;;4.50;1.30;;;;;;;19.66;50.78;99783.25;5054071;28;20029;-65
2022/10/02 09:11:36;;;;;;;5.85;1.30;;;;;;;19.91;50.63;99788.59;5053703;28;20171;-65
2022/10/02 09:14:10;;;;;;;6.47;1.70;;;;;;;19.26;51.70;99791.25;5053952;28;20480;-64
2022/10/02 09:16:50;;;;;;;5.07;1.50;;;;;;;19.26;51.22;99774.41;5053698;28;20111;-64
2022/10/02 09:19:30;;;;;;;4.47;1.83;;;;;;;19.03;51.50;99783.91;5053889;28;20175;-64
2022/10/02 09:22:21;;;;;;;4.90;1.13;;;;;;;19.54;50.26;99776.06;5053352;28;20057;-65
2022/10/02 09:25:08;;;;;;;3.55;1.33;;;;;;;19.63;49.58;99778.16;5051274;28;20035;-64
2022/10/02 09:28:12;;;;;;;6.75;1.40;;;;;;;19.71;49.79;99769.59;5052592;28;20021;-63
2022/10/02 09:31:05;;;;;;;6.22;1.40;;;;;;;18.91;50.53;99774.94;5022164;28;20041;-65
2022/10/02 09:33:49;;;;;;;;;;;;;;;18.62;50.55;99782.13;5053465;28;20037;-64
2022/10/02 09:36:48;;;;;;;4.47;1.20;;;;;;;18.59;51.42;99782.31;5053446;28;20006;-63
2022/10/02 09:39:57;;;;;;;6.53;1.30;;;;;;;18.53;51.17;99796.88;5052672;28;20053;-63
2022/10/02 09:42:54;;;;;;;5.68;1.25;;;;;;;18.53;51.63;99790.72;5019328;28;20117;-65
2022/10/02 09:45:26;;;;;;;7.25;1.10;;;;;;;18.40;51.12;99799.47;5052084;28;20511;-64
2022/10/02 09:48:36;;;;;;;7.40;2.67;;;;;;;18.86;50.35;99788.53;5053259;28;20473;-64
2022/10/02 09:51:31;;;;;;;5.40;1.17;;;;;;;18.74;50.90;99789.34;5056891;28;20473;-64
2022/10/02 09:54:27;;;;;;;4.53;1.08;;;;;;;19.11;49.44;99793.13;5033664;28;20040;-64
2022/10/02 09:57:11;;;;;;;4.32;1.40;;;;;;;18.58;51.42;99794.75;5057427;28;20021;-63
2022/10/02 09:59:53;;;;;;;5.18;1.05;;;;;;;18.44;52.55;99819.59;5056460;28;20025;-64
2022/10/02 10:02:30;;;;;;;4.97;1.13;;;;;;;18.20;55.29;99806.03;5057123;28;20025;-64
2022/10/02 10:05:37;;;;;;;4.72;1.08;;;;;;;17.80;59.31;99817.41;5057289;28;20027;-63
2022/10/02 10:08:11;;;;;;;4.43;1.20;;;;;;;17.13;59.32;99828.34;5057250;28;20021;-64
2022/10/02 10:10:46;;;;;;;3.88;0.80;;;;;;;16.43;60.11;99811.03;5057291;28;20040;-64
2022/10/02 10:13:41;;;;;;;3.70;0.85;;;;;;;16.61;60.72;99820.66;5056810;28;20036;-64
2022/10/02 10:16:28;;;;;;;1.30;0.38;;;;;;;16.00;56.68;99816.03;5057565;28;20039;-63
2022/10/02 10:19:21;;;;;;;1.48;0.22;;;;;;;15.77;56.35;99819.88;5054716;28;20463;-64
2022/10/02 10:22:05;;;;;;;4.03;0.90;;;;;;;15.72;57.53;99814.81;5046569;28;20437;-63
2022/10/02 10:24:48;;;;;;;1.95;0.70;;;;;;;15.88;58.22;99835.19;5035858;28;20056;-64
2022/10/02 10:27:14;;;;;;;1.92;0.90;;;;;;;15.59;59.72;99826.06;5036359;28;20025;-62
2022/10/02 10:30:01;;;;;;;4.53;1.15;;;;;;;15.81;59.15;99813.47;5036170;28;20036;-63
2022/10/02 10:32:45;;;;;;;3.85;1.30;;;;;;;15.99;59.18;99816.94;5036373;28;20377;-64
2022/10/02 10:35:30;;;;;;;3.28;1.10;;;;;;;16.20;58.99;99817.63;5036507;28;20488;-64
2022/10/02 10:38:36;;;;;;;2.90;1.27;;;;;;;16.62;58.11;99808.25;5036995;28;20037;-64
2022/10/02 10:41:36;;;;;;;4.28;1.17;;;;;;;16.68;57.76;99807.91;5036991;28;20461;-63
2022/10/02 10:44:16;;;;;;;3.90;1.30;;;;;;;16.30;58.94;99829.41;5035646;28;20053;-63
2022/10/02 10:46:58;;;;;;;3.58;1.40;;;;;;;15.87;60.02;99826.38;5035368;28;20041;-63
2022/10/02 10:49:59;;;;;;;4.15;1.30;;;;;;;15.64;62.26;99816.97;5035759;28;20033;-63
2022/10/02 10:52:57;;;;;;;2.72;0.88;;;;;;;16.32;60.45;99824.91;5035182;28;20125;-64
2022/10/02 10:55:50;;;;;;;5.07;2.15;;;;;;;16.53;59.85;99822.00;4982509;28;20054;-64
2022/10/02 10:58:39;;;;;;;6.40;1.85;;;;;;;16.92;58.54;99829.59;5035335;28;20025;-63
2022/10/02 11:01:16;;;;;;;6.53;2.00;;;;;;;16.65;58.51;99827.50;5034802;28;20191;-64
2022/10/02 11:04:03;;;;;;;6.82;2.20;;;;;;;16.84;58.84;99819.41;5034965;28;20025;-63
2022/10/02 11:06:49;;;;;;;4.32;1.20;;;;;;;17.08;56.51;99819.81;5035257;28;20037;-63
2022/10/02 11:09:38;;;;;;;3.53;1.20;;;;;;;17.65;56.38;99811.16;5035376;28;20036;-64
2022/10/02 11:12:20;;;;;;;2.45;0.90;;;;;;;17.88;55.49;99800.03;5034541;28;20082;-64
2022/10/02 11:15:19;;;;;;;2.53;0.90;;;;;;;18.26;55.15;99809.25;5035087;28;20030;-64
2022/10/02 11:18:13;;;;;;;3.30;0.95;;;;;;;18.80;53.87;99796.94;5034971;28;20120;-64
2022/10/02 11:20:56;;;;;;;3.22;0.90;;;;;;;19.22;53.69;99791.56;5034393;28;20368;-64
2022/10/02 11:23:43;;;;;;;2.78;0.90;;;;;;;19.66;52.76;99780.56;5034991;28;20026;-64
2022/10/02 11:26:42;;;;;;;2.45;0.82;;;;;;;19.97;51.87;99775.78;5034779;28;20030;-64
2022/10/02 11:29:19;;;;;;;2.25;0.80;;;;;;;19.83;52.31;99776.78;5034948;28;20119;-62
2022/10/02 11:32:24;;;;;;;3.15;1.23;;;;;;;19.50;52.54;99777.22;5034537;28;20117;-63
2022/10/02 11:35:07;;;;;;;2.20;1.30;;;;;;;19.43;53.53;99774.16;5034373;28;20081;-63
2022/10/02 11:38:01;;;;;;;6.43;1.40;;;;;;;19.29;53.24;99771.53;5034342;28;20065;-64
2022/10/02 11:40:29;;;;;;;3.90;1.20;;;;;;;19.02;53.53;99788.41;5034445;28;20029;-64
2022/10/02 11:46:05;;;;;;;8.60;1.70;;;;;;;31.83;97.21;99844.09;4991371;28;20377;-62
2022/10/02 11:49:06;;;;;;;6.55;1.83;;;;;;;34.58;46.18;99839.72;4991942;28;20074;-64
2022/10/02 11:51:50;;;;;;;4.20;1.13;;;;;;;31.62;52.05;99831.22;4988859;28;20448;-63
2022/10/02 11:54:36;;;;;;;5.22;1.35;;;;;;;34.14;34.22;99843.63;4991614;28;20058;-65
2022/10/02 11:57:07;;;;;;;3.40;1.23;;;;;;;34.81;33.01;99852.00;4990969;28;20034;-65
2022/10/02 11:59:42;;;;;;;10.95;4.65;;;;;;;34.42;33.43;99846.31;4971759;28;20027;-67
2022/10/02 12:02:13;;;;;;;10.45;3.70;;;;;;;33.43;33.78;99838.97;4971853;28;20435;-65
2022/10/02 12:04:45;;;;;;;7.63;2.63;;;;;;;33.79;35.19;99844.38;4971642;28;20067;-66
2022/10/02 12:07:28;;;;;;;6.63;1.98;;;;;;;32.53;32.55;99844.81;4971755;28;20034;-65
2022/10/02 12:09:53;;;;;;;;;;;;;;;32.18;32.29;99840.94;4971011;28;20038;-67
2022/10/02 12:12:37;;;;;;;4.67;1.07;;;;;;;31.47;34.09;99860.19;4973001;28;20011;-64
2022/10/02 12:15:24;;;;;;;3.85;0.98;;;;;;;31.65;34.19;99846.31;4980388;28;20146;-65
2022/10/02 12:18:12;;;;;;;2.92;0.98;;;;;;;31.57;33.54;99838.25;4971974;28;20043;-66
2022/10/02 12:26:59;;;;;;;4.05;1.40;;;;;;;31.61;32.83;99840.41;4991416;28;20079;-66
2022/10/02 12:29:42;;;;;;;2.00;1.00;;;;;;;31.87;34.11;99831.03;4991073;28;20363;-66
2022/10/02 12:32:25;;;;;;;2.38;1.05;;;;;;;31.55;32.58;99819.41;4981506;28;20046;-66
2022/10/02 12:35:30;;;;;;;2.55;1.10;;;;;;;32.26;32.66;99828.09;4971175;28;20092;-66
2022/10/02 12:38:04;;;;;;;2.17;1.23;;;;;;;32.50;32.62;99826.16;4971381;28;20383;-65
2022/10/02 12:40:35;;;;;;;4.28;1.40;;;;;;;32.42;31.21;99828.97;4971599;28;20077;-65
2022/10/02 12:43:15;;;;;;;2.65;1.45;;;;;;;32.47;30.56;99821.09;4971352;28;20034;-67
2022/10/02 12:45:46;;;;;;;2.20;1.15;;;;;;;33.31;32.35;99816.03;4990498;28;20200;-65
2022/10/02 12:48:39;;;;;;;1.95;1.00;;;;;;;32.32;31.57;99818.34;4990753;28;20110;-66